Archiv-/Tagesdaten

--Timestamp---	Temp	Chill	HIndex	Humid	Dewpt	 Wind 	HiWind	WindDir	Rain 	Barom	Solar	 ET  	 UV 
--------------	----	-----	------	-----	-----	------	------	-------	-----	-----	-----	-----	----
20110329 00:00	8.6	8.6	8.6	77	4.8	0	3	292	0.0	1014.8	0	0.025	0.0
20110329 00:05	8.6	8.6	8.6	77	4.8	2	5	292	0.0	1014.6	0	0.000	0.0
20110329 00:10	8.5	8.5	8.5	77	4.7	0	2	292	0.0	1014.6	0	0.000	0.0
20110329 00:15	8.4	8.4	8.4	77	4.6	0	2	292	0.0	1014.6	0	0.000	0.0
20110329 00:20	8.4	8.4	8.4	77	4.6	0	3	292	0.0	1014.6	0	0.000	0.0
20110329 00:25	8.4	8.4	8.4	78	4.8	0	0	-100000	0.0	1014.6	0	0.000	0.0
20110329 00:30	8.3	8.3	8.3	78	4.7	0	5	292	0.0	1014.7	0	0.000	0.0
20110329 00:35	8.2	8.2	8.2	79	4.7	3	6	292	0.0	1014.7	0	0.000	0.0
20110329 00:40	8.1	8.1	8.1	79	4.6	2	6	292	0.0	1014.7	0	0.000	0.0
20110329 00:45	7.9	7.9	7.9	80	4.7	3	6	292	0.0	1014.7	0	0.000	0.0
20110329 00:50	7.8	7.8	7.8	80	4.6	5	6	292	0.0	1014.7	0	0.000	0.0
20110329 00:55	7.8	7.8	7.8	81	4.7	2	5	270	0.0	1014.6	0	0.000	0.0
20110329 01:00	7.7	7.7	7.7	81	4.7	3	5	270	0.0	1014.6	0	0.025	0.0
20110329 01:05	7.7	7.7	7.7	81	4.6	3	6	270	0.0	1014.5	0	0.000	0.0
20110329 01:10	7.6	7.6	7.6	81	4.6	3	8	270	0.0	1014.6	0	0.000	0.0
20110329 01:15	7.6	7.6	7.6	81	4.5	5	8	270	0.0	1014.6	0	0.000	0.0
20110329 01:20	7.5	7.5	7.5	82	4.6	3	6	248	0.0	1014.6	0	0.000	0.0
20110329 01:25	7.4	7.4	7.4	82	4.6	2	5	248	0.0	1014.6	0	0.000	0.0
20110329 01:30	7.4	7.4	7.4	82	4.6	2	6	248	0.0	1014.7	0	0.000	0.0
20110329 01:35	7.4	7.4	7.4	82	4.5	2	6	248	0.0	1014.7	0	0.000	0.0
20110329 01:40	7.4	7.4	7.4	82	4.5	2	5	248	0.0	1014.7	0	0.000	0.0
20110329 01:45	7.3	7.3	7.3	83	4.6	2	5	248	0.0	1014.8	0	0.000	0.0
20110329 01:50	7.3	7.3	7.3	83	4.6	2	5	248	0.0	1014.8	0	0.000	0.0
20110329 01:55	7.2	7.2	7.2	83	4.5	3	6	248	0.0	1014.8	0	0.000	0.0
20110329 02:00	7.2	7.2	7.2	83	4.5	3	6	248	0.0	1014.8	0	0.025	0.0
20110329 02:05	7.2	7.2	7.2	84	4.7	2	5	248	0.0	1014.6	0	0.000	0.0
20110329 02:10	7.2	7.2	7.2	84	4.6	3	6	248	0.0	1014.6	0	0.000	0.0
20110329 02:15	7.1	7.1	7.1	84	4.6	3	6	248	0.0	1014.6	0	0.000	0.0
20110329 02:20	7.0	7.0	7.0	84	4.5	3	5	248	0.0	1014.6	0	0.000	0.0
20110329 02:25	6.9	6.9	6.9	84	4.4	5	8	248	0.0	1014.6	0	0.000	0.0
20110329 02:30	6.8	6.8	6.8	84	4.3	5	10	248	0.0	1014.6	0	0.000	0.0
20110329 02:35	6.7	6.7	6.7	85	4.3	5	6	248	0.0	1014.6	0	0.000	0.0
20110329 02:40	6.6	6.6	6.6	85	4.2	3	5	248	0.0	1014.6	0	0.000	0.0
20110329 02:45	6.4	6.4	6.4	85	4.1	3	6	248	0.0	1014.6	0	0.000	0.0
20110329 02:50	6.3	6.3	6.3	85	4.0	3	5	248	0.0	1014.8	0	0.000	0.0
20110329 02:55	6.2	6.2	6.2	86	4.1	5	6	248	0.0	1014.7	0	0.000	0.0
20110329 03:00	6.1	6.1	6.1	86	3.9	3	5	248	0.0	1014.8	0	0.025	0.0
20110329 03:05	6.1	6.1	6.1	86	3.9	3	5	248	0.0	1014.5	0	0.000	0.0
20110329 03:10	5.9	5.9	5.9	87	3.9	3	6	248	0.0	1014.5	0	0.000	0.0
20110329 03:15	5.9	5.9	5.9	87	3.9	5	6	248	0.0	1014.5	0	0.000	0.0
20110329 03:20	5.8	5.8	5.8	87	3.8	5	6	248	0.0	1014.4	0	0.000	0.0
20110329 03:25	5.7	5.7	5.7	87	3.7	5	8	248	0.0	1014.6	0	0.000	0.0
20110329 03:30	5.6	5.6	5.6	87	3.6	5	6	248	0.0	1014.5	0	0.000	0.0
20110329 03:35	5.6	5.6	5.6	87	3.6	3	6	248	0.0	1014.5	0	0.000	0.0
20110329 03:40	5.4	5.4	5.4	87	3.5	3	6	248	0.0	1014.6	0	0.000	0.0
20110329 03:45	5.4	5.4	5.4	87	3.5	5	6	248	0.0	1014.6	0	0.000	0.0
20110329 03:50	5.3	5.3	5.3	87	3.3	5	6	248	0.0	1014.5	0	0.000	0.0
20110329 03:55	5.3	5.3	5.3	87	3.3	5	8	248	0.0	1014.5	0	0.000	0.0
20110329 04:00	5.3	5.3	5.3	87	3.3	5	6	248	0.0	1014.5	0	0.000	0.0
20110329 04:05	5.2	5.2	5.2	88	3.3	3	6	248	0.0	1014.7	0	0.000	0.0
20110329 04:10	5.1	5.1	5.1	88	3.3	5	8	248	0.0	1014.7	0	0.000	0.0
20110329 04:15	5.1	5.1	5.1	88	3.2	5	8	248	0.0	1014.7	0	0.000	0.0
20110329 04:20	5.1	5.1	5.1	88	3.2	5	6	248	0.0	1014.7	0	0.000	0.0
20110329 04:25	5.0	5.0	5.0	88	3.2	5	8	248	0.0	1014.7	0	0.000	0.0
20110329 04:30	4.9	4.9	4.9	88	3.1	3	8	248	0.0	1014.8	0	0.000	0.0
20110329 04:35	4.9	4.9	4.9	88	3.1	5	8	248	0.0	1014.7	0	0.000	0.0
20110329 04:40	4.8	3.4	4.8	88	3.0	6	10	248	0.0	1014.8	0	0.000	0.0
20110329 04:45	4.8	4.8	4.8	88	3.0	3	8	248	0.0	1014.7	0	0.000	0.0
20110329 04:50	4.8	4.8	4.8	88	3.0	3	6	248	0.0	1014.7	0	0.000	0.0
20110329 04:55	4.7	4.7	4.7	88	2.9	5	8	248	0.0	1014.8	0	0.000	0.0
20110329 05:00	4.7	4.7	4.7	88	2.9	5	10	248	0.0	1014.8	0	0.000	0.0
20110329 05:05	4.6	4.6	4.6	88	2.7	5	6	248	0.0	1014.9	0	0.000	0.0
20110329 05:10	4.5	4.5	4.5	88	2.7	5	8	248	0.0	1014.9	0	0.000	0.0
20110329 05:15	4.4	4.4	4.4	88	2.6	5	10	248	0.0	1015.0	0	0.000	0.0
20110329 05:20	4.3	4.3	4.3	89	2.7	3	8	248	0.0	1015.0	0	0.000	0.0
20110329 05:25	4.3	4.3	4.3	89	2.6	5	8	248	0.0	1015.0	0	0.000	0.0
20110329 05:30	4.2	4.2	4.2	89	2.6	5	8	248	0.0	1015.0	0	0.000	0.0
20110329 05:35	4.2	4.2	4.2	89	2.5	5	8	248	0.0	1015.0	0	0.000	0.0
20110329 05:40	4.1	4.1	4.1	89	2.4	5	8	248	0.0	1015.1	0	0.000	0.0
20110329 05:45	4.1	4.1	4.1	89	2.4	5	8	248	0.0	1015.2	0	0.000	0.0
20110329 05:50	3.9	3.9	3.9	89	2.3	5	8	248	0.0	1015.2	0	0.000	0.0
20110329 05:55	3.8	3.8	3.8	89	2.2	5	8	248	0.0	1015.3	0	0.000	0.0
20110329 06:00	3.8	2.2	3.8	89	2.1	6	8	248	0.0	1015.3	0	0.000	0.0
20110329 06:05	3.7	3.7	3.7	89	2.1	5	8	248	0.0	1015.4	0	0.000	0.0
20110329 06:10	3.7	2.1	3.7	89	2.0	6	10	248	0.0	1015.4	0	0.000	0.0
20110329 06:15	3.7	2.1	3.7	89	2.0	6	10	248	0.0	1015.4	0	0.000	0.0
20110329 06:20	3.6	2.0	3.6	89	2.0	6	10	248	0.0	1015.4	0	0.000	0.0
20110329 06:25	3.6	3.6	3.6	89	2.0	5	10	248	0.0	1015.5	0	0.000	0.0
20110329 06:30	3.6	3.6	3.6	89	2.0	3	8	248	0.0	1015.4	0	0.000	0.0
20110329 06:35	3.6	3.6	3.6	89	1.9	5	8	248	0.0	1015.6	0	0.000	0.0
20110329 06:40	3.6	3.6	3.6	89	1.9	5	8	248	0.0	1015.6	0	0.000	0.0
20110329 06:45	3.5	1.9	3.5	89	1.9	6	10	248	0.0	1015.6	0	0.000	0.0
20110329 06:50	3.4	1.8	3.4	89	1.8	6	10	248	0.0	1015.6	0	0.000	0.0
20110329 06:55	3.4	3.4	3.4	89	1.7	5	10	248	0.0	1015.7	0	0.000	0.0
20110329 07:00	3.4	1.7	3.4	89	1.7	6	10	248	0.0	1015.8	0	0.000	0.0
20110329 07:05	3.3	1.7	3.3	89	1.7	6	10	248	0.0	1015.9	3	0.000	0.0
20110329 07:10	3.3	1.6	3.3	89	1.6	6	10	270	0.0	1015.9	7	0.000	0.0
20110329 07:15	3.3	1.6	3.3	89	1.6	6	10	225	0.0	1016.0	11	0.000	0.0
20110329 07:20	3.2	1.5	3.2	89	1.6	6	10	225	0.0	1016.1	14	0.000	0.0
20110329 07:25	3.2	3.2	3.2	89	1.6	5	8	202	0.0	1016.1	18	0.000	0.0
20110329 07:30	3.2	3.2	3.2	89	1.6	5	8	202	0.0	1016.1	21	0.000	0.0
20110329 07:35	3.2	3.2	3.2	89	1.6	5	10	202	0.0	1016.1	25	0.000	0.0
20110329 07:40	3.2	3.2	3.2	89	1.6	5	10	202	0.0	1016.2	30	0.000	0.0
20110329 07:45	3.3	3.3	3.3	89	1.6	3	8	202	0.0	1016.2	35	0.000	0.0
20110329 07:50	3.3	3.3	3.3	89	1.7	5	10	202	0.0	1016.3	39	0.000	0.0
20110329 07:55	3.4	3.4	3.4	89	1.7	5	8	202	0.0	1016.3	43	0.000	0.0
20110329 08:00	3.4	1.8	3.4	89	1.8	6	10	202	0.0	1016.3	46	0.025	0.0
20110329 08:05	3.5	1.9	3.5	89	1.9	6	10	202	0.0	1016.4	49	0.000	0.0
20110329 08:10	3.5	1.9	3.5	89	1.9	6	10	202	0.0	1016.4	53	0.000	0.0
20110329 08:15	3.6	3.6	3.6	89	1.9	5	10	202	0.0	1016.5	58	0.000	0.0
20110329 08:20	3.7	2.1	3.7	89	2.1	6	10	202	0.0	1016.5	106	0.000	0.0
20110329 08:25	3.9	2.3	3.9	89	2.2	6	10	225	0.0	1016.5	122	0.000	0.0
20110329 08:30	4.1	2.6	4.1	88	2.3	6	11	202	0.0	1016.6	93	0.000	0.0
20110329 08:35	4.2	2.7	4.2	88	2.4	6	10	202	0.0	1016.4	69	0.000	0.0
20110329 08:40	4.4	2.9	4.4	88	2.6	6	8	202	0.0	1016.4	71	0.000	0.0
20110329 08:45	4.5	4.5	4.5	88	2.7	5	8	202	0.0	1016.5	74	0.000	0.3
20110329 08:50	4.7	4.7	4.7	88	2.9	5	8	202	0.0	1016.5	77	0.000	0.5
20110329 08:55	4.9	4.9	4.9	88	3.1	3	8	202	0.0	1016.5	79	0.000	0.5
20110329 09:00	5.2	5.2	5.2	88	3.3	5	8	202	0.0	1016.6	81	0.025	0.6
20110329 09:05	5.3	5.3	5.3	87	3.3	3	8	202	0.0	1016.5	83	0.000	0.6
20110329 09:10	5.6	5.6	5.6	87	3.6	2	6	202	0.0	1016.5	85	0.000	0.7
20110329 09:15	5.8	5.8	5.8	87	3.8	3	6	202	0.0	1016.5	87	0.000	0.7
20110329 09:20	6.1	6.1	6.1	86	3.9	3	6	202	0.0	1016.5	90	0.000	0.8
20110329 09:25	6.3	6.3	6.3	86	4.2	2	6	202	0.0	1016.5	91	0.000	0.8
20110329 09:30	6.6	6.6	6.6	85	4.3	3	6	202	0.0	1016.3	93	0.000	0.9
20110329 09:35	6.8	6.8	6.8	85	4.5	0	3	202	0.0	1016.3	95	0.000	0.9
20110329 09:40	7.1	7.1	7.1	84	4.6	2	6	202	0.0	1016.4	97	0.000	1.0
20110329 09:45	7.4	7.4	7.4	83	4.7	3	6	202	0.0	1016.3	98	0.000	1.0
20110329 09:50	7.6	7.6	7.6	82	4.7	3	6	202	0.0	1016.3	98	0.000	1.1
20110329 09:55	7.8	7.8	7.8	82	4.9	2	6	202	0.0	1016.3	100	0.000	1.1
20110329 10:00	7.9	7.9	7.9	81	4.9	2	6	202	0.0	1016.3	103	0.051	1.2
20110329 10:05	8.2	8.2	8.2	80	4.9	2	6	202	0.0	1016.3	104	0.000	1.3
20110329 10:10	8.4	8.4	8.4	79	5.0	3	10	202	0.0	1016.3	105	0.000	1.3
20110329 10:15	8.6	8.6	8.6	77	4.8	3	8	270	0.0	1016.2	106	0.000	1.3
20110329 10:20	8.8	8.8	8.8	77	5.0	3	8	270	0.0	1016.3	110	0.000	1.4
20110329 10:25	8.9	8.9	8.9	75	4.8	5	8	270	0.0	1016.3	113	0.000	1.5
20110329 10:30	9.1	9.1	9.1	75	4.9	5	8	270	0.0	1016.3	115	0.000	1.5
20110329 10:35	9.2	9.2	9.2	74	4.8	5	8	270	0.0	1016.2	115	0.000	1.6
20110329 10:40	9.3	9.3	9.3	74	4.9	2	8	270	0.0	1016.2	117	0.000	1.6
20110329 10:45	9.4	9.4	9.4	73	4.8	2	8	270	0.0	1016.2	119	0.000	1.7
20110329 10:50	9.6	9.6	9.6	73	5.0	3	6	270	0.0	1016.3	120	0.000	1.8
20110329 10:55	9.7	9.7	9.7	72	4.9	2	6	270	0.0	1016.2	123	0.000	1.8
20110329 11:00	9.9	9.9	9.9	71	4.9	2	8	270	0.0	1016.2	126	0.051	1.9
20110329 11:05	10.1	10.1	10.1	70	4.8	5	10	270	0.0	1016.2	128	0.000	2.0
20110329 11:10	10.2	10.2	10.2	69	4.7	2	6	248	0.0	1016.2	132	0.000	2.0
20110329 11:15	10.3	10.3	10.3	68	4.7	2	6	248	0.0	1016.2	135	0.000	2.1
20110329 11:20	10.5	10.5	10.5	66	4.4	0	2	248	0.0	1016.2	193	0.000	2.1
20110329 11:25	10.7	10.7	10.7	63	3.9	2	6	248	0.0	1016.3	496	0.000	2.2
20110329 11:30	10.8	10.8	10.8	58	2.9	2	6	270	0.0	1016.1	545	0.000	2.7
20110329 11:35	10.9	10.9	10.9	59	3.2	0	3	270	0.0	1016.2	551	0.000	3.0
20110329 11:40	11.3	11.3	11.3	60	3.8	3	6	292	0.0	1016.2	539	0.000	3.0
20110329 11:45	11.4	11.4	11.4	57	3.2	0	2	292	0.0	1016.2	563	0.000	3.2
20110329 11:50	11.6	11.6	11.6	58	3.6	2	5	292	0.0	1016.1	583	0.000	3.3
20110329 11:55	11.7	11.7	11.7	56	3.2	2	6	292	0.0	1016.1	595	0.000	3.4
20110329 12:00	11.9	11.9	11.9	55	3.1	2	6	292	0.0	1016.1	600	0.203	3.4
20110329 12:05	12.1	12.1	12.1	54	3.0	3	8	292	0.0	1016.1	599	0.000	3.5
20110329 12:10	12.2	12.2	12.2	52	2.6	3	8	338	0.0	1016.1	612	0.000	3.6
20110329 12:15	12.2	12.2	12.2	53	2.9	5	11	338	0.0	1016.0	618	0.000	3.7
20110329 12:20	12.1	12.1	12.1	51	2.2	3	10	22	0.0	1016.1	621	0.000	3.7
20110329 12:25	12.2	12.2	12.2	54	3.1	3	8	22	0.0	1016.0	627	0.000	3.8
20110329 12:30	12.3	12.3	12.3	53	3.0	3	8	22	0.0	1016.0	637	0.000	3.9
20110329 12:35	12.1	12.1	12.1	54	3.1	5	10	22	0.0	1016.0	645	0.000	3.9
20110329 12:40	12.1	12.1	12.1	54	3.1	5	8	338	0.0	1015.9	641	0.000	4.0
20110329 12:45	12.1	12.1	12.1	53	2.8	5	11	338	0.0	1015.9	639	0.000	4.0
20110329 12:50	12.1	12.1	12.1	55	3.3	3	11	45	0.0	1015.9	642	0.000	4.0
20110329 12:55	12.4	12.4	12.4	54	3.4	3	8	338	0.0	1015.9	647	0.000	4.0
20110329 13:00	12.4	12.4	12.4	55	3.7	3	10	0	0.0	1015.9	663	0.330	4.1
20110329 13:05	12.5	12.5	12.5	55	3.7	2	6	0	0.0	1015.9	645	0.000	4.0
20110329 13:10	12.7	12.7	12.7	55	3.9	2	6	0	0.0	1015.9	642	0.000	4.1
20110329 13:15	12.8	12.8	12.8	53	3.4	5	8	0	0.0	1015.9	662	0.000	4.1
20110329 13:20	12.7	12.7	12.7	52	3.1	3	10	22	0.0	1015.8	663	0.000	4.2
20110329 13:25	12.7	12.7	12.7	54	3.6	3	10	22	0.0	1015.8	670	0.000	4.2
20110329 13:30	12.8	12.8	12.8	53	3.4	2	6	22	0.0	1015.7	677	0.000	4.2
20110329 13:35	13.0	13.0	13.0	54	3.9	5	8	22	0.0	1015.7	670	0.000	4.2
20110329 13:40	13.3	13.3	13.3	54	4.2	6	11	22	0.0	1015.6	660	0.000	4.1
20110329 13:45	13.4	13.4	13.4	55	4.6	2	8	45	0.0	1015.5	650	0.000	4.1
20110329 13:50	13.4	13.4	13.4	52	3.8	3	11	68	0.0	1015.5	644	0.000	4.0
20110329 13:55	13.2	13.2	13.2	52	3.6	6	10	45	0.0	1015.5	641	0.000	4.0
20110329 14:00	13.2	13.2	13.2	53	3.8	5	10	68	0.0	1015.4	645	0.356	4.0
20110329 14:05	13.3	13.3	13.3	52	3.6	5	11	338	0.0	1015.5	650	0.000	4.0
20110329 14:10	13.4	13.4	13.4	52	3.8	5	10	45	0.0	1015.5	643	0.000	4.0
20110329 14:15	13.6	13.6	13.6	50	3.3	5	8	45	0.0	1015.5	638	0.000	3.9
20110329 14:20	13.7	13.7	13.7	50	3.4	5	10	22	0.0	1015.3	636	0.000	3.9
20110329 14:25	13.9	13.9	13.9	50	3.6	5	10	315	0.0	1015.3	634	0.000	3.9
20110329 14:30	14.2	14.2	14.2	48	3.3	2	6	338	0.0	1015.2	635	0.000	3.8
20110329 14:35	14.3	14.3	14.3	51	4.3	2	6	338	0.0	1015.1	627	0.000	3.8
20110329 14:40	14.3	14.3	14.3	49	3.8	6	14	315	0.0	1015.0	615	0.000	3.7
20110329 14:45	14.4	14.4	14.4	50	4.1	3	8	315	0.0	1015.0	613	0.000	3.6
20110329 14:50	14.6	14.6	14.6	48	3.7	5	10	338	0.0	1014.9	603	0.000	3.6
20110329 14:55	14.7	14.7	14.7	49	4.1	5	10	315	0.0	1014.7	601	0.000	3.5
20110329 15:00	14.8	14.8	14.8	50	4.5	5	11	0	0.0	1014.7	598	0.356	3.4
20110329 15:05	14.5	14.5	14.5	50	4.2	8	14	22	0.0	1014.7	599	0.000	3.4
20110329 15:10	14.2	14.2	14.2	50	3.9	6	13	22	0.0	1014.6	589	0.000	3.3
20110329 15:15	14.3	14.3	14.3	49	3.8	6	13	315	0.0	1014.6	578	0.000	3.2
20110329 15:20	14.6	14.6	14.6	51	4.6	3	8	338	0.0	1014.6	570	0.000	3.1
20110329 15:25	14.8	14.8	14.8	47	3.6	3	10	338	0.0	1014.6	564	0.000	3.0
20110329 15:30	14.7	14.7	14.7	47	3.5	2	6	0	0.0	1014.5	559	0.000	3.0
20110329 15:35	14.9	14.9	14.9	45	3.1	3	8	338	0.0	1014.5	557	0.000	2.9
20110329 15:40	15.0	15.0	15.0	45	3.2	5	10	338	0.0	1014.5	547	0.000	2.8
20110329 15:45	14.6	14.6	14.6	45	2.8	5	10	22	0.0	1014.4	531	0.000	2.7
20110329 15:50	14.6	14.6	14.6	50	4.3	3	8	45	0.0	1014.3	512	0.000	2.5
20110329 15:55	15.0	15.0	15.0	46	3.5	5	10	315	0.0	1014.3	510	0.000	2.5
20110329 16:00	15.2	15.2	15.2	45	3.3	5	11	270	0.0	1014.3	506	0.305	2.4
20110329 16:05	15.2	15.2	15.2	47	3.9	3	10	0	0.0	1014.4	502	0.000	2.3
20110329 16:10	15.1	15.1	15.1	47	3.9	3	11	0	0.0	1014.3	485	0.000	2.2
20110329 16:15	15.0	15.0	15.0	49	4.4	3	8	22	0.0	1014.2	469	0.000	2.1
20110329 16:20	14.8	14.8	14.8	48	3.9	10	14	45	0.0	1014.2	458	0.000	2.0
20110329 16:25	14.4	14.4	14.4	49	3.8	6	16	45	0.0	1014.1	443	0.000	1.9
20110329 16:30	14.5	14.5	14.5	48	3.6	2	5	45	0.0	1014.1	436	0.000	1.8
20110329 16:35	14.7	14.7	14.7	47	3.5	2	6	45	0.0	1014.0	422	0.000	1.7
20110329 16:40	14.8	14.8	14.8	48	3.9	2	8	45	0.0	1013.9	414	0.000	1.6
20110329 16:45	14.8	14.8	14.8	48	3.9	8	14	22	0.0	1013.9	399	0.000	1.5
20110329 16:50	14.6	14.6	14.6	48	3.7	6	10	22	0.0	1013.9	382	0.000	1.4
20110329 16:55	14.5	14.5	14.5	49	3.9	3	11	22	0.0	1013.9	365	0.000	1.3
20110329 17:00	14.6	14.6	14.6	47	3.4	5	10	22	0.0	1013.9	350	0.254	1.2
20110329 17:05	14.5	14.5	14.5	50	4.2	5	16	45	0.0	1014.0	342	0.000	1.2
20110329 17:10	14.7	14.7	14.7	51	4.6	2	6	22	0.0	1014.0	329	0.000	1.1
20110329 17:15	14.7	14.7	14.7	48	3.8	3	8	22	0.0	1013.8	318	0.000	1.0
20110329 17:20	14.8	14.8	14.8	49	4.2	2	10	338	0.0	1013.8	304	0.000	1.0
20110329 17:25	14.6	14.6	14.6	48	3.7	6	11	0	0.0	1013.9	288	0.000	0.9
20110329 17:30	14.6	14.6	14.6	47	3.4	3	8	45	0.0	1013.9	274	0.000	0.8
20110329 17:35	14.7	14.7	14.7	47	3.5	3	6	0	0.0	1013.9	260	0.000	0.8
20110329 17:40	14.9	14.9	14.9	48	4.0	3	5	0	0.0	1013.7	247	0.000	0.7
20110329 17:45	15.0	15.0	15.0	46	3.5	2	6	0	0.0	1013.8	236	0.000	0.6
20110329 17:50	14.8	14.8	14.8	48	3.9	2	5	0	0.0	1013.8	221	0.000	0.6
20110329 17:55	14.6	14.6	14.6	47	3.4	6	10	22	0.0	1013.9	205	0.000	0.5
20110329 18:00	14.4	14.4	14.4	49	3.8	5	11	22	0.0	1013.8	192	0.178	0.5
20110329 18:05	14.2	14.2	14.2	48	3.4	6	10	68	0.0	1013.8	176	0.000	0.2
20110329 18:10	14.1	14.1	14.1	48	3.3	3	8	68	0.0	1013.8	161	0.000	0.0
20110329 18:15	14.1	14.1	14.1	49	3.5	3	8	68	0.0	1013.9	148	0.000	0.0
20110329 18:20	14.0	14.0	14.0	48	3.2	3	6	68	0.0	1013.9	135	0.000	0.0
20110329 18:25	13.9	13.9	13.9	49	3.4	3	8	68	0.0	1013.9	120	0.000	0.0
20110329 18:30	13.8	13.8	13.8	50	3.6	3	6	68	0.0	1013.9	107	0.000	0.0
20110329 18:35	13.7	13.7	13.7	49	3.2	3	6	68	0.0	1013.9	94	0.000	0.0
20110329 18:40	13.6	13.6	13.6	51	3.7	5	6	68	0.0	1014.0	82	0.000	0.0
20110329 18:45	13.5	13.5	13.5	51	3.6	3	6	68	0.0	1014.0	70	0.000	0.0
20110329 18:50	13.4	13.4	13.4	50	3.2	5	8	68	0.0	1013.9	59	0.000	0.0
20110329 18:55	13.3	13.3	13.3	52	3.6	3	6	68	0.0	1013.9	44	0.000	0.0
20110329 19:00	13.1	13.1	13.1	55	4.3	3	6	68	0.0	1014.0	35	0.076	0.0
20110329 19:05	12.9	12.9	12.9	58	4.8	2	5	68	0.0	1014.0	31	0.000	0.0
20110329 19:10	12.6	12.6	12.6	58	4.6	5	8	68	0.0	1014.1	26	0.000	0.0
20110329 19:15	12.4	12.4	12.4	59	4.6	2	6	68	0.0	1014.1	21	0.000	0.0
20110329 19:20	12.2	12.2	12.2	59	4.4	2	5	68	0.0	1014.2	16	0.000	0.0
20110329 19:25	12.0	12.0	12.0	60	4.5	0	5	68	0.0	1014.2	12	0.000	0.0
20110329 19:30	11.8	11.8	11.8	60	4.3	0	3	68	0.0	1014.4	9	0.000	0.0
20110329 19:35	11.7	11.7	11.7	61	4.4	0	2	68	0.0	1014.5	6	0.000	0.0
20110329 19:40	11.5	11.5	11.5	61	4.2	0	3	68	0.0	1014.5	1	0.000	0.0
20110329 19:45	11.3	11.3	11.3	62	4.3	0	2	68	0.0	1014.4	0	0.000	0.0
20110329 19:50	11.2	11.2	11.2	63	4.4	0	2	68	0.0	1014.5	0	0.000	0.0
20110329 19:55	11.0	11.0	11.0	63	4.2	0	2	68	0.0	1014.5	0	0.000	0.0
20110329 20:00	10.8	10.8	10.8	64	4.3	0	2	68	0.0	1014.6	0	0.025	0.0
20110329 20:05	10.7	10.7	10.7	63	3.9	0	2	68	0.0	1014.5	0	0.000	0.0
20110329 20:10	10.6	10.6	10.6	64	4.0	0	2	68	0.0	1014.5	0	0.000	0.0
20110329 20:15	10.4	10.4	10.4	65	4.1	0	2	68	0.0	1014.5	0	0.000	0.0
20110329 20:20	10.3	10.3	10.3	65	4.0	0	2	68	0.0	1014.6	0	0.000	0.0
20110329 20:25	10.2	10.2	10.2	65	3.9	0	2	68	0.0	1014.7	0	0.000	0.0
20110329 20:30	10.1	10.1	10.1	64	3.6	0	2	68	0.0	1014.7	0	0.000	0.0
20110329 20:35	10.0	10.0	10.0	65	3.7	0	2	68	0.0	1014.7	0	0.000	0.0
20110329 20:40	9.9	9.9	9.9	65	3.6	2	5	68	0.0	1014.8	0	0.000	0.0
20110329 20:45	9.8	9.8	9.8	65	3.6	0	5	68	0.0	1014.8	0	0.000	0.0
20110329 20:50	9.7	9.7	9.7	66	3.7	2	5	68	0.0	1014.9	0	0.000	0.0
20110329 20:55	9.6	9.6	9.6	66	3.6	2	3	68	0.0	1014.9	0	0.000	0.0
20110329 21:00	9.5	9.5	9.5	66	3.5	0	3	68	0.0	1015.0	0	0.025	0.0
20110329 21:05	9.3	9.3	9.3	66	3.3	0	2	68	0.0	1014.8	0	0.000	0.0
20110329 21:10	9.2	9.2	9.2	67	3.4	2	5	68	0.0	1014.8	0	0.000	0.0
20110329 21:15	9.1	9.1	9.1	68	3.5	0	3	68	0.0	1014.8	0	0.000	0.0
20110329 21:20	8.9	8.9	8.9	68	3.4	0	3	68	0.0	1014.9	0	0.000	0.0
20110329 21:25	8.8	8.8	8.8	69	3.5	0	2	68	0.0	1014.9	0	0.000	0.0
20110329 21:30	8.8	8.8	8.8	69	3.4	0	2	68	0.0	1014.8	0	0.000	0.0
20110329 21:35	8.7	8.7	8.7	70	3.6	0	3	68	0.0	1014.9	0	0.000	0.0
20110329 21:40	8.7	8.7	8.7	70	3.5	0	2	68	0.0	1014.9	0	0.000	0.0
20110329 21:45	8.5	8.5	8.5	70	3.3	0	2	68	0.0	1014.9	0	0.000	0.0
20110329 21:50	8.4	8.4	8.4	71	3.5	0	3	68	0.0	1015.0	0	0.000	0.0
20110329 21:55	8.3	8.3	8.3	71	3.4	2	5	68	0.0	1015.0	0	0.000	0.0
20110329 22:00	8.3	8.3	8.3	72	3.5	0	3	68	0.0	1014.9	0	0.025	0.0
20110329 22:05	8.3	8.3	8.3	72	3.5	2	5	68	0.0	1014.7	0	0.000	0.0
20110329 22:10	8.2	8.2	8.2	72	3.4	2	5	68	0.0	1014.6	0	0.000	0.0
20110329 22:15	8.1	8.1	8.1	72	3.4	2	6	68	0.0	1014.6	0	0.000	0.0
20110329 22:20	8.1	8.1	8.1	72	3.3	2	5	68	0.0	1014.7	0	0.000	0.0
20110329 22:25	8.0	8.0	8.0	72	3.3	2	5	68	0.0	1014.6	0	0.000	0.0
20110329 22:30	7.9	7.9	7.9	72	3.2	0	2	68	0.0	1014.7	0	0.000	0.0
20110329 22:35	7.9	7.9	7.9	72	3.2	0	5	68	0.0	1014.6	0	0.000	0.0
20110329 22:40	7.8	7.8	7.8	73	3.2	2	5	68	0.0	1014.7	0	0.000	0.0
20110329 22:45	7.7	7.7	7.7	73	3.2	2	5	68	0.0	1014.5	0	0.000	0.0
20110329 22:50	7.6	7.6	7.6	73	3.1	2	5	68	0.0	1014.6	0	0.000	0.0
20110329 22:55	7.5	7.5	7.5	74	3.2	2	5	68	0.0	1014.6	0	0.000	0.0
20110329 23:00	7.4	7.4	7.4	74	3.1	2	6	68	0.0	1014.6	0	0.025	0.0
20110329 23:05	7.3	7.3	7.3	74	3.0	0	2	68	0.0	1014.4	0	0.000	0.0
20110329 23:10	7.2	7.2	7.2	74	2.9	2	6	68	0.0	1014.4	0	0.000	0.0
20110329 23:15	7.2	7.2	7.2	74	2.9	0	2	68	0.0	1014.4	0	0.000	0.0
20110329 23:20	7.1	7.1	7.1	74	2.8	0	2	68	0.0	1014.4	0	0.000	0.0
20110329 23:25	7.0	7.0	7.0	75	2.9	0	0	-100000	0.0	1014.4	0	0.000	0.0
20110329 23:30	6.9	6.9	6.9	75	2.8	0	0	-100000	0.0	1014.4	0	0.000	0.0
20110329 23:35	6.8	6.8	6.8	75	2.7	0	0	-100000	0.0	1014.5	0	0.000	0.0
20110329 23:40	6.6	6.6	6.6	76	2.7	0	0	-100000	0.0	1014.5	0	0.000	0.0
20110329 23:45	6.5	6.5	6.5	76	2.6	0	2	68	0.0	1014.5	0	0.000	0.0
20110329 23:50	6.4	6.4	6.4	77	2.7	2	5	68	0.0	1014.4	0	0.000	0.0
20110329 23:55	6.3	6.3	6.3	78	2.8	0	3	68	0.0	1014.5	0	0.000	0.0



Please note the license to use and transfer of this data:
http://creativecommons.org/licenses/by-nc-sa/3.0/deed.en

Bitte beachten sie die Lizenz zur Verwertung und Weitergabe der Daten:
http://creativecommons.org/licenses/by-nc-sa/3.0/deed.de

zurück zur Übersicht der Archivdaten (Monats und Tagesdaten)

Cookies helfen bei der Bereitstellung von Inhalten. Durch die Nutzung dieser Seiten erklärst du dich damit einverstanden, dass Cookies auf deinem Rechner gespeichert werden. Weitere Information